HRGA4: Little River, Horatio, AR

                                SHEF ID:       HRGA4     Little River near Horatio, AR
STATION TYPE: Stream Gauge
Regulating: Stage = 21.50, Flow = 17539

PRECIP STAGE RIV-FLOW BAT-LOAD
in ft cfs volt
Ccp-Rev Ccp-Rev Ccp-Rev Ccp-Rev
(America/Chicago)
04/29 00:00 0.00 8.08 2604 12.47
04/29 01:00 0.00 8.17 2676 12.44
04/29 02:00 0.00 8.27 2756 12.43
04/29 03:00 0.00 8.50 2943 12.41
04/29 04:00 0.00 8.89 3269 12.40
04/29 05:00 0.00 9.37 3685 12.40
04/29 06:00 0.00 9.83 4098 12.40
04/29 07:00 0.00 10.20 4439 12.40
04/29 08:00 0.00 10.51 4732 12.40
04/29 09:00 0.00 10.78 4992 12.48
04/29 10:00 0.00 11.02 5227 12.84
04/29 11:00 0.00 11.22 5425 13.32
04/29 12:00 0.00 11.38 5585 13.37
04/29 13:00 0.00 11.51 5716 13.28
04/29 14:00 0.39 11.64 5848 13.08
04/29 15:00 0.00 11.73 5940 13.03
04/29 16:00 0.00 11.79 6002 13.00
04/29 17:00 0.00 11.82 6033 12.90
04/29 18:00 0.03 11.82 6033 12.91
04/29 19:00 0.00 11.85 6064 12.90
04/29 20:00 0.00 11.85 6064 12.86
04/29 21:00 0.00 11.83 6043 12.67
04/29 22:00 0.00 11.81 6022 12.60
04/29 23:00 0.00 11.79 6002 12.57
Data processed at Thu 30Apr2026 04:10 GMT

NOTICE: If you are parsing this page

Please convert to using our Data API. Starting early 2026 we will be migrating to: https://water.usace.army.mil with modern pages rendered in JavaScript. When this migration completes you will no longer be able to scrape this page! CWMSDataAPI (CDA)

Timeseries IDs (TSIDs)

TSIDs used from left to right in the data table
HORA.Precip-Inc.Total.1Hour.1Hour.Ccp-Rev
HORA.Stage.Inst.1Hour.0.Ccp-Rev
HORA.Flow.Inst.1Hour.0.Ccp-Rev
HORA.Volt-Battery Load.Inst.1Hour.0.Ccp-Rev

                            

All information presented herein is the property of the government of the United States of America and may be revised or deleted at any time without prior notice. Dissemination of this information without the expressed written consent of the Public Affairs Office, Tulsa District U.S. Army Corps of Engineers is strictly prohibited. These data are gathered electronically and, as presented, have NOT undergone any form of quality control. These data are NOT guaranteed to be valid or correct.